Phelan, CA

7:23 AM PST on December 05, 2016 (GMT -0800)
North Upland | | Change Station

Elev 1755 ft 34.14 °N, 117.65 °W | Updated 171 days ago

Partly Cloudy
Partly Cloudy
61 °F
Feels Like 61 °F
N
2
Wind Variable Wind from SW
Gusts mph

Today
High -- | Low -- °F
--% Chance of Precip.
Yesterday
High -- | Low -- °F
Precip. -- in
Pressure 29.97 in
Visibility 7.0 miles
Clouds Scattered Clouds 10000 ft
Scattered Clouds 15000 ft
Dew Point 32 °F
Humidity 34%
Rainfall in
Snow Depth Not available.
6:40 AM 4:38 PM
Waxing Crescent, 32% visible
METAR KSBD 051500Z 06006KT 7SM SCT100 SCT150 05/M01 A2997
Pressure 29.97 in
Visibility 7.0 miles
Clouds Scattered Clouds 10000 ft
Scattered Clouds 15000 ft
Dew Point 32 °F
Humidity 34%
Rainfall in
Snow Depth Not available.
6:40 AM 4:38 PM
Waxing Crescent, 32% visible
METAR KSBD 051500Z 06006KT 7SM SCT100 SCT150 05/M01 A2997

10-Day Weather Forecast

Almanac

Astronomy

Dec. 05, 2016 Rise Set
Actual Time
Civil Twilight
Nautical Twilight
Astronomical Twilight
Moon
Length of Visible Light
Length of Day
Tomorrow will be .
, % of the Moon is Illuminated

Today's Extremes

State Highs State Lows

Community

WunderPhotos

Upload Photos

1,955,789 photos uploaded!

WunderBlog® & News

Nearby

Air Quality

  Air Quality AQ Index Pollutant
Not available.

Snow Depth

Station Depth Elevation

Earthquake Activity

City Distance Mag. Time & Date
Minimum magnitude displayed is 2.5.

Coastal Water Temperatures

Place Temperature

Stations

Nearby Weather Stations

Station Location Temp. Windchill Dew Point Humidity Wind Precip. Elev Updated Type
                   

Watches & Warnings

There are currently no watches in effect.